Bathurst Airport Bathurst CA
ICAO: CZBF
IATA: ZBF
Category: Medium
Scheduled Services: Yes

Elevation: 193 ft
TransAlt. 18000 ft.

Airport Communications:
QUEBEC RDO:123.45
ATF/UNICOM:122.8

CZBF Zoom In..

If you have problems with the map follow the link
https://www.worldairports.se/pages/airport.php?
ICAO=CZBF

Runways:

(A) RW 10 length 4500 ft width 100 ft
---- / hdg 102

(B) RW 28 length 4500 ft width 100 ft
---- / hdg 282

Location; CZBF
Day. 18 / Time. 22.00 Zulu
* Altimeter: 30.01
* Temperature: -12° c. -10.4°f.
* Wind from: 230° Speed 02 kn.
Dewpoint: -14° c.
Visibility: 7 Statute Miles.
Clouds: Overcast 2200 ft.
Conditions: Light Snow.

CZBF 182200Z AUTO 23002KT 7SM -SN OVC022 M12/M14 A3001 RMK SLP169


Wind From 230°
Speed 02 kn.

 
 
jpsmedia.com for Web Design worldairports.se 2019   terms of use